sensor_id;sensor_type;location;lat;lon;timestamp;P1;durP1;ratioP1;P2;durP2;ratioP2
13753;SDS011;6948;51.216;6.778;2023-07-28T00:01:33;2.97;;;1.77;;
13753;SDS011;6948;51.216;6.778;2023-07-28T00:03:59;2.83;;;1.83;;
13753;SDS011;6948;51.216;6.778;2023-07-28T00:06:27;3.23;;;2.00;;
13753;SDS011;6948;51.216;6.778;2023-07-28T00:08:53;2.63;;;2.07;;
13753;SDS011;6948;51.216;6.778;2023-07-28T00:11:19;2.67;;;1.70;;
13753;SDS011;6948;51.216;6.778;2023-07-28T00:13:45;3.37;;;2.10;;
13753;SDS011;6948;51.216;6.778;2023-07-28T00:16:11;3.07;;;1.90;;
13753;SDS011;6948;51.216;6.778;2023-07-28T00:18:37;2.80;;;1.90;;
13753;SDS011;6948;51.216;6.778;2023-07-28T00:21:04;2.87;;;2.00;;
13753;SDS011;6948;51.216;6.778;2023-07-28T00:23:30;2.17;;;1.63;;
13753;SDS011;6948;51.216;6.778;2023-07-28T00:25:57;3.77;;;2.03;;
13753;SDS011;6948;51.216;6.778;2023-07-28T00:28:23;2.83;;;1.80;;
13753;SDS011;6948;51.216;6.778;2023-07-28T00:30:49;3.07;;;1.70;;
13753;SDS011;6948;51.216;6.778;2023-07-28T00:33:15;3.27;;;1.90;;
13753;SDS011;6948;51.216;6.778;2023-07-28T00:35:41;3.73;;;2.20;;
13753;SDS011;6948;51.216;6.778;2023-07-28T00:38:08;2.27;;;1.60;;
13753;SDS011;6948;51.216;6.778;2023-07-28T00:40:35;3.93;;;1.80;;
13753;SDS011;6948;51.216;6.778;2023-07-28T00:43:01;2.30;;;1.80;;
13753;SDS011;6948;51.216;6.778;2023-07-28T00:45:27;3.73;;;1.97;;
13753;SDS011;6948;51.216;6.778;2023-07-28T00:47:54;2.53;;;1.77;;
13753;SDS011;6948;51.216;6.778;2023-07-28T00:50:22;1.90;;;1.60;;
13753;SDS011;6948;51.216;6.778;2023-07-28T00:52:49;3.40;;;1.93;;
13753;SDS011;6948;51.216;6.778;2023-07-28T00:55:15;2.80;;;1.87;;
13753;SDS011;6948;51.216;6.778;2023-07-28T00:57:41;3.63;;;1.80;;
13753;SDS011;6948;51.216;6.778;2023-07-28T01:00:08;3.43;;;1.90;;
13753;SDS011;6948;51.216;6.778;2023-07-28T01:02:35;4.03;;;1.87;;
13753;SDS011;6948;51.216;6.778;2023-07-28T01:05:01;1.70;;;1.60;;
13753;SDS011;6948;51.216;6.778;2023-07-28T01:07:47;3.47;;;1.90;;
13753;SDS011;6948;51.216;6.778;2023-07-28T01:10:16;2.37;;;1.70;;
13753;SDS011;6948;51.216;6.778;2023-07-28T01:12:43;2.50;;;1.70;;
13753;SDS011;6948;51.216;6.778;2023-07-28T01:15:09;3.23;;;1.90;;
13753;SDS011;6948;51.216;6.778;2023-07-28T01:17:35;2.40;;;2.00;;
13753;SDS011;6948;51.216;6.778;2023-07-28T01:20:02;3.23;;;1.90;;
13753;SDS011;6948;51.216;6.778;2023-07-28T01:22:35;3.07;;;1.80;;
13753;SDS011;6948;51.216;6.778;2023-07-28T01:25:06;3.03;;;2.00;;
13753;SDS011;6948;51.216;6.778;2023-07-28T01:27:35;3.40;;;2.03;;
13753;SDS011;6948;51.216;6.778;2023-07-28T01:30:02;4.60;;;2.07;;
13753;SDS011;6948;51.216;6.778;2023-07-28T01:32:28;3.57;;;2.07;;
13753;SDS011;6948;51.216;6.778;2023-07-28T01:34:54;3.50;;;1.80;;
13753;SDS011;6948;51.216;6.778;2023-07-28T01:37:21;2.30;;;1.97;;
13753;SDS011;6948;51.216;6.778;2023-07-28T01:39:47;5.80;;;2.33;;
13753;SDS011;6948;51.216;6.778;2023-07-28T01:42:13;3.17;;;2.10;;
13753;SDS011;6948;51.216;6.778;2023-07-28T01:44:39;3.20;;;2.30;;
13753;SDS011;6948;51.216;6.778;2023-07-28T01:47:05;3.07;;;2.10;;
13753;SDS011;6948;51.216;6.778;2023-07-28T01:49:31;3.13;;;2.07;;
13753;SDS011;6948;51.216;6.778;2023-07-28T01:51:57;2.70;;;2.20;;
13753;SDS011;6948;51.216;6.778;2023-07-28T01:54:23;3.93;;;2.27;;
13753;SDS011;6948;51.216;6.778;2023-07-28T01:56:49;3.07;;;2.40;;
13753;SDS011;6948;51.216;6.778;2023-07-28T01:59:15;3.10;;;2.30;;
13753;SDS011;6948;51.216;6.778;2023-07-28T02:01:41;2.87;;;2.50;;
13753;SDS011;6948;51.216;6.778;2023-07-28T02:04:07;7.70;;;2.60;;
13753;SDS011;6948;51.216;6.778;2023-07-28T02:06:33;4.53;;;2.60;;
13753;SDS011;6948;51.216;6.778;2023-07-28T02:08:59;3.17;;;2.17;;
13753;SDS011;6948;51.216;6.778;2023-07-28T02:11:25;3.03;;;2.33;;
13753;SDS011;6948;51.216;6.778;2023-07-28T02:13:51;2.73;;;2.43;;
13753;SDS011;6948;51.216;6.778;2023-07-28T02:16:17;3.50;;;2.70;;
13753;SDS011;6948;51.216;6.778;2023-07-28T02:18:44;2.60;;;2.27;;
13753;SDS011;6948;51.216;6.778;2023-07-28T02:21:10;4.30;;;2.87;;
13753;SDS011;6948;51.216;6.778;2023-07-28T02:23:35;4.27;;;2.50;;
13753;SDS011;6948;51.216;6.778;2023-07-28T02:26:02;2.60;;;2.40;;
13753;SDS011;6948;51.216;6.778;2023-07-28T02:28:28;3.10;;;2.43;;
13753;SDS011;6948;51.216;6.778;2023-07-28T02:30:54;5.03;;;2.23;;
13753;SDS011;6948;51.216;6.778;2023-07-28T02:33:20;3.07;;;2.40;;
13753;SDS011;6948;51.216;6.778;2023-07-28T02:35:46;2.50;;;2.30;;
13753;SDS011;6948;51.216;6.778;2023-07-28T02:38:12;4.03;;;2.53;;
13753;SDS011;6948;51.216;6.778;2023-07-28T02:40:38;4.50;;;2.60;;
13753;SDS011;6948;51.216;6.778;2023-07-28T02:43:04;3.17;;;2.60;;
13753;SDS011;6948;51.216;6.778;2023-07-28T02:45:30;2.93;;;2.50;;
13753;SDS011;6948;51.216;6.778;2023-07-28T02:47:56;3.77;;;2.53;;
13753;SDS011;6948;51.216;6.778;2023-07-28T02:50:22;2.90;;;2.20;;
13753;SDS011;6948;51.216;6.778;2023-07-28T02:52:48;2.93;;;2.73;;
13753;SDS011;6948;51.216;6.778;2023-07-28T02:55:14;3.23;;;2.80;;
13753;SDS011;6948;51.216;6.778;2023-07-28T02:57:40;2.80;;;2.60;;
13753;SDS011;6948;51.216;6.778;2023-07-28T03:00:10;3.20;;;2.77;;
13753;SDS011;6948;51.216;6.778;2023-07-28T03:02:36;2.97;;;2.70;;
13753;SDS011;6948;51.216;6.778;2023-07-28T03:05:02;2.83;;;2.57;;
13753;SDS011;6948;51.216;6.778;2023-07-28T03:07:29;4.57;;;2.87;;
13753;SDS011;6948;51.216;6.778;2023-07-28T03:09:55;2.90;;;2.70;;
13753;SDS011;6948;51.216;6.778;2023-07-28T03:12:21;2.70;;;2.50;;
13753;SDS011;6948;51.216;6.778;2023-07-28T03:14:47;2.80;;;2.60;;
13753;SDS011;6948;51.216;6.778;2023-07-28T03:17:13;3.37;;;2.73;;
13753;SDS011;6948;51.216;6.778;2023-07-28T03:19:39;2.90;;;2.67;;
13753;SDS011;6948;51.216;6.778;2023-07-28T03:22:05;3.17;;;2.90;;
13753;SDS011;6948;51.216;6.778;2023-07-28T03:24:31;3.47;;;2.87;;
13753;SDS011;6948;51.216;6.778;2023-07-28T03:26:58;3.40;;;3.10;;
13753;SDS011;6948;51.216;6.778;2023-07-28T03:29:24;3.27;;;2.93;;
13753;SDS011;6948;51.216;6.778;2023-07-28T03:31:50;3.40;;;3.07;;
13753;SDS011;6948;51.216;6.778;2023-07-28T03:34:16;3.40;;;3.10;;
13753;SDS011;6948;51.216;6.778;2023-07-28T03:36:42;3.33;;;3.03;;
13753;SDS011;6948;51.216;6.778;2023-07-28T03:39:08;3.57;;;3.10;;
13753;SDS011;6948;51.216;6.778;2023-07-28T03:41:34;3.53;;;3.23;;
13753;SDS011;6948;51.216;6.778;2023-07-28T03:44:00;4.87;;;3.10;;
13753;SDS011;6948;51.216;6.778;2023-07-28T03:46:26;4.33;;;3.03;;
13753;SDS011;6948;51.216;6.778;2023-07-28T03:48:52;3.47;;;2.80;;
13753;SDS011;6948;51.216;6.778;2023-07-28T03:51:18;4.30;;;2.90;;
13753;SDS011;6948;51.216;6.778;2023-07-28T03:53:44;3.67;;;2.90;;
13753;SDS011;6948;51.216;6.778;2023-07-28T03:56:10;3.40;;;2.67;;
13753;SDS011;6948;51.216;6.778;2023-07-28T03:58:36;4.73;;;2.80;;
13753;SDS011;6948;51.216;6.778;2023-07-28T04:01:02;4.20;;;2.60;;
13753;SDS011;6948;51.216;6.778;2023-07-28T04:03:32;2.60;;;2.40;;
13753;SDS011;6948;51.216;6.778;2023-07-28T04:05:58;3.50;;;2.50;;
13753;SDS011;6948;51.216;6.778;2023-07-28T04:08:24;3.70;;;2.67;;
13753;SDS011;6948;51.216;6.778;2023-07-28T04:10:50;2.50;;;2.30;;
13753;SDS011;6948;51.216;6.778;2023-07-28T04:13:16;2.43;;;2.23;;
13753;SDS011;6948;51.216;6.778;2023-07-28T04:15:42;3.13;;;2.30;;
13753;SDS011;6948;51.216;6.778;2023-07-28T04:18:09;3.97;;;2.43;;
13753;SDS011;6948;51.216;6.778;2023-07-28T04:20:35;2.60;;;2.40;;
13753;SDS011;6948;51.216;6.778;2023-07-28T04:23:01;2.77;;;2.30;;
13753;SDS011;6948;51.216;6.778;2023-07-28T04:25:27;3.07;;;2.13;;
13753;SDS011;6948;51.216;6.778;2023-07-28T04:27:53;1.93;;;1.83;;
13753;SDS011;6948;51.216;6.778;2023-07-28T04:30:20;3.30;;;1.80;;
13753;SDS011;6948;51.216;6.778;2023-07-28T04:32:46;2.30;;;1.80;;
13753;SDS011;6948;51.216;6.778;2023-07-28T04:35:12;3.23;;;1.73;;
13753;SDS011;6948;51.216;6.778;2023-07-28T04:37:38;1.90;;;1.73;;
13753;SDS011;6948;51.216;6.778;2023-07-28T04:40:04;1.90;;;1.80;;
13753;SDS011;6948;51.216;6.778;2023-07-28T04:42:31;1.83;;;1.73;;
13753;SDS011;6948;51.216;6.778;2023-07-28T04:44:57;1.90;;;1.80;;
13753;SDS011;6948;51.216;6.778;2023-07-28T04:47:23;2.43;;;1.67;;
13753;SDS011;6948;51.216;6.778;2023-07-28T04:49:49;3.17;;;1.80;;
13753;SDS011;6948;51.216;6.778;2023-07-28T04:52:15;1.90;;;1.70;;
13753;SDS011;6948;51.216;6.778;2023-07-28T04:54:41;1.90;;;1.70;;
13753;SDS011;6948;51.216;6.778;2023-07-28T04:57:07;2.30;;;1.90;;
13753;SDS011;6948;51.216;6.778;2023-07-28T04:59:33;2.67;;;2.00;;
13753;SDS011;6948;51.216;6.778;2023-07-28T05:01:59;2.93;;;1.93;;
13753;SDS011;6948;51.216;6.778;2023-07-28T05:04:25;2.37;;;2.10;;
13753;SDS011;6948;51.216;6.778;2023-07-28T05:06:51;2.30;;;2.10;;
13753;SDS011;6948;51.216;6.778;2023-07-28T05:09:17;3.23;;;2.20;;
13753;SDS011;6948;51.216;6.778;2023-07-28T05:11:43;2.23;;;2.10;;
13753;SDS011;6948;51.216;6.778;2023-07-28T05:14:10;2.70;;;2.20;;
13753;SDS011;6948;51.216;6.778;2023-07-28T05:16:36;2.50;;;2.30;;
13753;SDS011;6948;51.216;6.778;2023-07-28T05:19:03;3.07;;;2.23;;
13753;SDS011;6948;51.216;6.778;2023-07-28T05:21:29;3.73;;;2.33;;
13753;SDS011;6948;51.216;6.778;2023-07-28T05:23:55;2.97;;;2.33;;
13753;SDS011;6948;51.216;6.778;2023-07-28T05:26:21;3.10;;;2.00;;
13753;SDS011;6948;51.216;6.778;2023-07-28T05:28:47;4.43;;;2.40;;
13753;SDS011;6948;51.216;6.778;2023-07-28T05:31:13;4.30;;;2.40;;
13753;SDS011;6948;51.216;6.778;2023-07-28T05:33:40;4.53;;;2.10;;
13753;SDS011;6948;51.216;6.778;2023-07-28T05:36:06;3.30;;;2.33;;
13753;SDS011;6948;51.216;6.778;2023-07-28T05:38:32;4.27;;;2.40;;
13753;SDS011;6948;51.216;6.778;2023-07-28T05:40:59;5.00;;;2.40;;
13753;SDS011;6948;51.216;6.778;2023-07-28T05:43:26;4.07;;;2.40;;
13753;SDS011;6948;51.216;6.778;2023-07-28T05:45:52;3.77;;;2.60;;
13753;SDS011;6948;51.216;6.778;2023-07-28T05:48:18;2.77;;;2.57;;
13753;SDS011;6948;51.216;6.778;2023-07-28T05:50:45;3.13;;;2.60;;
13753;SDS011;6948;51.216;6.778;2023-07-28T05:53:11;5.10;;;2.93;;
13753;SDS011;6948;51.216;6.778;2023-07-28T05:55:37;3.00;;;2.70;;
13753;SDS011;6948;51.216;6.778;2023-07-28T05:58:03;5.50;;;3.00;;
13753;SDS011;6948;51.216;6.778;2023-07-28T06:00:29;3.93;;;2.53;;
13753;SDS011;6948;51.216;6.778;2023-07-28T06:02:55;3.23;;;2.30;;
13753;SDS011;6948;51.216;6.778;2023-07-28T06:05:22;5.00;;;2.60;;
13753;SDS011;6948;51.216;6.778;2023-07-28T06:07:48;2.87;;;2.40;;
13753;SDS011;6948;51.216;6.778;2023-07-28T06:10:14;3.60;;;2.83;;
13753;SDS011;6948;51.216;6.778;2023-07-28T06:12:40;4.00;;;2.80;;
13753;SDS011;6948;51.216;6.778;2023-07-28T06:15:06;4.03;;;3.03;;
13753;SDS011;6948;51.216;6.778;2023-07-28T06:17:32;4.23;;;3.10;;
13753;SDS011;6948;51.216;6.778;2023-07-28T06:19:58;4.03;;;3.00;;
13753;SDS011;6948;51.216;6.778;2023-07-28T06:22:25;4.33;;;3.20;;
13753;SDS011;6948;51.216;6.778;2023-07-28T06:24:51;3.30;;;3.00;;
13753;SDS011;6948;51.216;6.778;2023-07-28T06:27:17;3.30;;;3.00;;
13753;SDS011;6948;51.216;6.778;2023-07-28T06:29:44;3.90;;;3.10;;
13753;SDS011;6948;51.216;6.778;2023-07-28T06:32:10;3.80;;;3.00;;
13753;SDS011;6948;51.216;6.778;2023-07-28T06:34:36;4.80;;;3.00;;
13753;SDS011;6948;51.216;6.778;2023-07-28T06:37:02;3.50;;;2.93;;
13753;SDS011;6948;51.216;6.778;2023-07-28T06:39:28;4.30;;;2.97;;
13753;SDS011;6948;51.216;6.778;2023-07-28T06:41:55;3.03;;;2.73;;
13753;SDS011;6948;51.216;6.778;2023-07-28T06:44:21;3.63;;;2.50;;
13753;SDS011;6948;51.216;6.778;2023-07-28T06:46:47;3.50;;;2.90;;
13753;SDS011;6948;51.216;6.778;2023-07-28T06:49:13;4.30;;;2.60;;
13753;SDS011;6948;51.216;6.778;2023-07-28T06:51:39;2.73;;;2.43;;
13753;SDS011;6948;51.216;6.778;2023-07-28T06:54:05;5.80;;;2.70;;
13753;SDS011;6948;51.216;6.778;2023-07-28T06:56:36;2.50;;;2.30;;
13753;SDS011;6948;51.216;6.778;2023-07-28T06:59:02;4.80;;;2.27;;
13753;SDS011;6948;51.216;6.778;2023-07-28T07:01:28;3.10;;;2.40;;
13753;SDS011;6948;51.216;6.778;2023-07-28T07:03:54;3.10;;;2.30;;
13753;SDS011;6948;51.216;6.778;2023-07-28T07:06:21;4.20;;;2.17;;
13753;SDS011;6948;51.216;6.778;2023-07-28T07:08:47;4.27;;;2.70;;
13753;SDS011;6948;51.216;6.778;2023-07-28T07:11:13;8.17;;;4.27;;
13753;SDS011;6948;51.216;6.778;2023-07-28T07:13:40;8.80;;;4.60;;
13753;SDS011;6948;51.216;6.778;2023-07-28T07:16:12;6.50;;;3.60;;
13753;SDS011;6948;51.216;6.778;2023-07-28T07:18:40;6.83;;;3.87;;
13753;SDS011;6948;51.216;6.778;2023-07-28T07:21:06;6.27;;;3.47;;
13753;SDS011;6948;51.216;6.778;2023-07-28T07:23:32;4.73;;;3.20;;
13753;SDS011;6948;51.216;6.778;2023-07-28T07:25:58;4.27;;;2.70;;
13753;SDS011;6948;51.216;6.778;2023-07-28T07:28:25;6.40;;;4.23;;
13753;SDS011;6948;51.216;6.778;2023-07-28T07:30:52;4.50;;;3.00;;
13753;SDS011;6948;51.216;6.778;2023-07-28T07:33:18;3.97;;;2.97;;
13753;SDS011;6948;51.216;6.778;2023-07-28T07:35:44;5.47;;;2.77;;
13753;SDS011;6948;51.216;6.778;2023-07-28T07:38:10;11.27;;;4.00;;
13753;SDS011;6948;51.216;6.778;2023-07-28T07:40:36;8.27;;;3.50;;
13753;SDS011;6948;51.216;6.778;2023-07-28T07:43:03;6.67;;;3.10;;
13753;SDS011;6948;51.216;6.778;2023-07-28T07:45:29;5.53;;;3.10;;
13753;SDS011;6948;51.216;6.778;2023-07-28T07:47:56;4.33;;;2.80;;
13753;SDS011;6948;51.216;6.778;2023-07-28T07:50:22;6.77;;;3.20;;
13753;SDS011;6948;51.216;6.778;2023-07-28T07:52:48;8.03;;;2.97;;
13753;SDS011;6948;51.216;6.778;2023-07-28T07:55:14;3.40;;;3.10;;
13753;SDS011;6948;51.216;6.778;2023-07-28T07:57:41;5.20;;;3.13;;
13753;SDS011;6948;51.216;6.778;2023-07-28T08:00:07;5.07;;;3.20;;
13753;SDS011;6948;51.216;6.778;2023-07-28T08:02:34;5.70;;;3.67;;
13753;SDS011;6948;51.216;6.778;2023-07-28T08:05:00;3.70;;;3.30;;
13753;SDS011;6948;51.216;6.778;2023-07-28T08:07:27;4.93;;;3.23;;
13753;SDS011;6948;51.216;6.778;2023-07-28T08:09:53;5.03;;;3.20;;
13753;SDS011;6948;51.216;6.778;2023-07-28T08:12:20;10.03;;;4.07;;
13753;SDS011;6948;51.216;6.778;2023-07-28T08:14:46;7.00;;;3.17;;
13753;SDS011;6948;51.216;6.778;2023-07-28T08:17:12;5.97;;;3.40;;
13753;SDS011;6948;51.216;6.778;2023-07-28T08:19:38;4.73;;;3.23;;
13753;SDS011;6948;51.216;6.778;2023-07-28T08:22:04;4.97;;;3.40;;
13753;SDS011;6948;51.216;6.778;2023-07-28T08:24:31;3.40;;;3.10;;
13753;SDS011;6948;51.216;6.778;2023-07-28T08:26:57;4.67;;;3.43;;
13753;SDS011;6948;51.216;6.778;2023-07-28T08:29:23;5.07;;;3.37;;
13753;SDS011;6948;51.216;6.778;2023-07-28T08:31:49;11.60;;;3.83;;
13753;SDS011;6948;51.216;6.778;2023-07-28T08:34:15;4.73;;;3.63;;
13753;SDS011;6948;51.216;6.778;2023-07-28T08:36:42;5.17;;;3.50;;
13753;SDS011;6948;51.216;6.778;2023-07-28T08:39:09;5.97;;;3.03;;
13753;SDS011;6948;51.216;6.778;2023-07-28T08:41:35;3.67;;;2.90;;
13753;SDS011;6948;51.216;6.778;2023-07-28T08:44:02;3.70;;;3.20;;
13753;SDS011;6948;51.216;6.778;2023-07-28T08:46:28;5.90;;;3.17;;
13753;SDS011;6948;51.216;6.778;2023-07-28T08:48:55;3.87;;;3.00;;
13753;SDS011;6948;51.216;6.778;2023-07-28T08:51:22;4.47;;;3.20;;
13753;SDS011;6948;51.216;6.778;2023-07-28T08:53:48;4.90;;;3.40;;
13753;SDS011;6948;51.216;6.778;2023-07-28T08:56:14;5.43;;;3.33;;
13753;SDS011;6948;51.216;6.778;2023-07-28T08:58:40;7.53;;;3.60;;
13753;SDS011;6948;51.216;6.778;2023-07-28T09:01:10;4.43;;;3.00;;
13753;SDS011;6948;51.216;6.778;2023-07-28T09:03:44;5.37;;;3.10;;
13753;SDS011;6948;51.216;6.778;2023-07-28T09:06:12;4.53;;;2.97;;
13753;SDS011;6948;51.216;6.778;2023-07-28T09:08:39;4.80;;;2.70;;
13753;SDS011;6948;51.216;6.778;2023-07-28T09:11:10;4.20;;;2.40;;
13753;SDS011;6948;51.216;6.778;2023-07-28T09:13:39;2.73;;;2.40;;
13753;SDS011;6948;51.216;6.778;2023-07-28T09:16:22;4.53;;;2.80;;
13753;SDS011;6948;51.216;6.778;2023-07-28T09:19:03;3.50;;;2.47;;
13753;SDS011;6948;51.216;6.778;2023-07-28T09:21:30;5.17;;;2.77;;
13753;SDS011;6948;51.216;6.778;2023-07-28T09:23:58;4.83;;;2.70;;
13753;SDS011;6948;51.216;6.778;2023-07-28T09:26:35;3.27;;;2.23;;
13753;SDS011;6948;51.216;6.778;2023-07-28T09:29:10;4.50;;;2.50;;
13753;SDS011;6948;51.216;6.778;2023-07-28T09:31:36;2.20;;;2.00;;
13753;SDS011;6948;51.216;6.778;2023-07-28T09:34:03;2.40;;;2.00;;
13753;SDS011;6948;51.216;6.778;2023-07-28T09:36:30;2.80;;;2.10;;
13753;SDS011;6948;51.216;6.778;2023-07-28T09:38:56;4.17;;;2.00;;
13753;SDS011;6948;51.216;6.778;2023-07-28T09:41:24;5.43;;;2.20;;
13753;SDS011;6948;51.216;6.778;2023-07-28T09:43:50;4.47;;;2.20;;
13753;SDS011;6948;51.216;6.778;2023-07-28T09:46:17;5.90;;;2.23;;
13753;SDS011;6948;51.216;6.778;2023-07-28T09:48:45;4.37;;;2.40;;
13753;SDS011;6948;51.216;6.778;2023-07-28T09:51:12;3.70;;;2.53;;
13753;SDS011;6948;51.216;6.778;2023-07-28T09:53:41;2.87;;;1.97;;
13753;SDS011;6948;51.216;6.778;2023-07-28T09:56:10;3.97;;;2.80;;
13753;SDS011;6948;51.216;6.778;2023-07-28T09:58:38;1.77;;;1.60;;
13753;SDS011;6948;51.216;6.778;2023-07-28T10:01:07;3.67;;;1.87;;
13753;SDS011;6948;51.216;6.778;2023-07-28T10:03:33;2.53;;;1.90;;
13753;SDS011;6948;51.216;6.778;2023-07-28T10:06:00;3.47;;;1.73;;
13753;SDS011;6948;51.216;6.778;2023-07-28T10:08:26;2.87;;;2.00;;
13753;SDS011;6948;51.216;6.778;2023-07-28T10:10:52;4.07;;;1.83;;
13753;SDS011;6948;51.216;6.778;2023-07-28T10:13:21;2.93;;;1.90;;
13753;SDS011;6948;51.216;6.778;2023-07-28T10:15:47;4.77;;;1.80;;
13753;SDS011;6948;51.216;6.778;2023-07-28T10:18:14;1.87;;;1.60;;
13753;SDS011;6948;51.216;6.778;2023-07-28T10:20:42;3.10;;;1.60;;
13753;SDS011;6948;51.216;6.778;2023-07-28T10:25:57;3.60;;;1.63;;
13753;SDS011;6948;51.216;6.778;2023-07-28T10:31:02;1.73;;;1.57;;
13753;SDS011;6948;51.216;6.778;2023-07-28T10:33:30;4.67;;;1.80;;
13753;SDS011;6948;51.216;6.778;2023-07-28T10:35:57;3.27;;;1.93;;
13753;SDS011;6948;51.216;6.778;2023-07-28T10:38:27;3.23;;;2.00;;
13753;SDS011;6948;51.216;6.778;2023-07-28T10:41:04;2.53;;;2.10;;
13753;SDS011;6948;51.216;6.778;2023-07-28T10:43:30;4.07;;;2.77;;
13753;SDS011;6948;51.216;6.778;2023-07-28T10:45:56;3.57;;;2.73;;
13753;SDS011;6948;51.216;6.778;2023-07-28T10:48:22;3.37;;;2.47;;
13753;SDS011;6948;51.216;6.778;2023-07-28T10:50:49;2.63;;;2.20;;
13753;SDS011;6948;51.216;6.778;2023-07-28T10:53:15;2.40;;;2.20;;
13753;SDS011;6948;51.216;6.778;2023-07-28T10:55:41;1.90;;;1.70;;
13753;SDS011;6948;51.216;6.778;2023-07-28T10:58:07;4.67;;;2.00;;
13753;SDS011;6948;51.216;6.778;2023-07-28T11:00:33;2.73;;;1.73;;
13753;SDS011;6948;51.216;6.778;2023-07-28T11:02:59;2.83;;;1.70;;
13753;SDS011;6948;51.216;6.778;2023-07-28T11:05:27;6.60;;;2.10;;
13753;SDS011;6948;51.216;6.778;2023-07-28T11:07:55;4.30;;;1.70;;
13753;SDS011;6948;51.216;6.778;2023-07-28T11:10:22;1.80;;;1.40;;
13753;SDS011;6948;51.216;6.778;2023-07-28T11:12:49;3.10;;;1.50;;
13753;SDS011;6948;51.216;6.778;2023-07-28T11:15:16;1.93;;;1.47;;
13753;SDS011;6948;51.216;6.778;2023-07-28T11:17:44;1.90;;;1.33;;
13753;SDS011;6948;51.216;6.778;2023-07-28T11:20:16;1.50;;;1.40;;
13753;SDS011;6948;51.216;6.778;2023-07-28T11:22:43;1.43;;;1.33;;
13753;SDS011;6948;51.216;6.778;2023-07-28T11:25:10;1.50;;;1.40;;
13753;SDS011;6948;51.216;6.778;2023-07-28T11:27:36;2.13;;;1.40;;
13753;SDS011;6948;51.216;6.778;2023-07-28T11:30:02;2.43;;;1.30;;
13753;SDS011;6948;51.216;6.778;2023-07-28T11:32:30;2.13;;;1.17;;
13753;SDS011;6948;51.216;6.778;2023-07-28T11:37:41;1.25;;;1.15;;
13753;SDS011;6948;51.216;6.778;2023-07-28T11:40:08;1.50;;;1.40;;
13753;SDS011;6948;51.216;6.778;2023-07-28T11:42:37;1.60;;;1.30;;
13753;SDS011;6948;51.216;6.778;2023-07-28T11:45:04;1.30;;;1.20;;
13753;SDS011;6948;51.216;6.778;2023-07-28T11:47:31;2.80;;;1.20;;
13753;SDS011;6948;51.216;6.778;2023-07-28T11:49:57;1.47;;;1.23;;
13753;SDS011;6948;51.216;6.778;2023-07-28T11:52:30;2.10;;;1.50;;
13753;SDS011;6948;51.216;6.778;2023-07-28T11:54:56;2.00;;;1.50;;
13753;SDS011;6948;51.216;6.778;2023-07-28T11:57:22;2.27;;;1.53;;
13753;SDS011;6948;51.216;6.778;2023-07-28T11:59:49;4.70;;;1.60;;
13753;SDS011;6948;51.216;6.778;2023-07-28T12:02:23;1.50;;;1.30;;
13753;SDS011;6948;51.216;6.778;2023-07-28T12:04:50;2.07;;;1.60;;
13753;SDS011;6948;51.216;6.778;2023-07-28T12:07:18;3.63;;;1.58;;
13753;SDS011;6948;51.216;6.778;2023-07-28T12:12:23;1.83;;;1.50;;
13753;SDS011;6948;51.216;6.778;2023-07-28T12:14:51;1.50;;;1.30;;
13753;SDS011;6948;51.216;6.778;2023-07-28T12:17:17;1.30;;;1.20;;
13753;SDS011;6948;51.216;6.778;2023-07-28T12:22:40;1.55;;;1.30;;
13753;SDS011;6948;51.216;6.778;2023-07-28T12:25:06;1.40;;;1.30;;
13753;SDS011;6948;51.216;6.778;2023-07-28T12:27:32;3.35;;;1.50;;
13753;SDS011;6948;51.216;6.778;2023-07-28T12:29:58;4.05;;;1.52;;
13753;SDS011;6948;51.216;6.778;2023-07-28T12:32:24;1.52;;;1.35;;
13753;SDS011;6948;51.216;6.778;2023-07-28T12:34:50;2.38;;;1.40;;
13753;SDS011;6948;51.216;6.778;2023-07-28T12:37:17;1.30;;;1.20;;
13753;SDS011;6948;51.216;6.778;2023-07-28T12:39:43;3.22;;;1.20;;
13753;SDS011;6948;51.216;6.778;2023-07-28T12:42:10;1.42;;;1.30;;
13753;SDS011;6948;51.216;6.778;2023-07-28T12:44:37;1.80;;;1.10;;
13753;SDS011;6948;51.216;6.778;2023-07-28T12:47:03;1.92;;;1.15;;
13753;SDS011;6948;51.216;6.778;2023-07-28T12:49:29;2.60;;;1.30;;
13753;SDS011;6948;51.216;6.778;2023-07-28T12:51:59;1.73;;;1.40;;
13753;SDS011;6948;51.216;6.778;2023-07-28T12:54:25;3.50;;;1.60;;
13753;SDS011;6948;51.216;6.778;2023-07-28T12:56:52;1.85;;;1.30;;
13753;SDS011;6948;51.216;6.778;2023-07-28T12:59:19;3.22;;;1.20;;
13753;SDS011;6948;51.216;6.778;2023-07-28T13:01:45;1.30;;;1.20;;
13753;SDS011;6948;51.216;6.778;2023-07-28T13:04:11;1.45;;;1.35;;
13753;SDS011;6948;51.216;6.778;2023-07-28T13:06:37;1.42;;;1.30;;
13753;SDS011;6948;51.216;6.778;2023-07-28T13:09:05;2.28;;;1.40;;
13753;SDS011;6948;51.216;6.778;2023-07-28T13:11:33;1.83;;;1.70;;
13753;SDS011;6948;51.216;6.778;2023-07-28T13:13:59;2.50;;;1.70;;
13753;SDS011;6948;51.216;6.778;2023-07-28T13:16:25;1.70;;;1.60;;
13753;SDS011;6948;51.216;6.778;2023-07-28T13:18:52;2.67;;;1.50;;
13753;SDS011;6948;51.216;6.778;2023-07-28T13:21:18;1.50;;;1.23;;
13753;SDS011;6948;51.216;6.778;2023-07-28T13:23:44;1.03;;;1.00;;
13753;SDS011;6948;51.216;6.778;2023-07-28T13:26:10;1.10;;;1.00;;
13753;SDS011;6948;51.216;6.778;2023-07-28T13:28:36;1.37;;;1.20;;
13753;SDS011;6948;51.216;6.778;2023-07-28T13:31:02;2.00;;;1.50;;
13753;SDS011;6948;51.216;6.778;2023-07-28T13:33:29;1.20;;;1.10;;
13753;SDS011;6948;51.216;6.778;2023-07-28T13:35:55;2.00;;;1.30;;
13753;SDS011;6948;51.216;6.778;2023-07-28T13:38:22;1.30;;;1.20;;
13753;SDS011;6948;51.216;6.778;2023-07-28T13:40:48;1.20;;;1.10;;
13753;SDS011;6948;51.216;6.778;2023-07-28T13:43:14;2.40;;;1.30;;
13753;SDS011;6948;51.216;6.778;2023-07-28T13:45:40;1.20;;;1.00;;
13753;SDS011;6948;51.216;6.778;2023-07-28T13:48:06;2.07;;;1.20;;
13753;SDS011;6948;51.216;6.778;2023-07-28T13:50:32;1.77;;;1.30;;
13753;SDS011;6948;51.216;6.778;2023-07-28T13:52:58;1.70;;;1.40;;
13753;SDS011;6948;51.216;6.778;2023-07-28T13:55:24;2.17;;;1.43;;
13753;SDS011;6948;51.216;6.778;2023-07-28T13:57:50;1.37;;;1.27;;
13753;SDS011;6948;51.216;6.778;2023-07-28T14:00:16;1.80;;;1.30;;
13753;SDS011;6948;51.216;6.778;2023-07-28T14:02:42;2.33;;;1.13;;
13753;SDS011;6948;51.216;6.778;2023-07-28T14:05:08;1.70;;;1.30;;
13753;SDS011;6948;51.216;6.778;2023-07-28T14:07:34;2.65;;;1.75;;
13753;SDS011;6948;51.216;6.778;2023-07-28T14:10:01;2.20;;;1.60;;
13753;SDS011;6948;51.216;6.778;2023-07-28T14:12:27;2.47;;;1.37;;
13753;SDS011;6948;51.216;6.778;2023-07-28T14:14:53;2.20;;;1.50;;
13753;SDS011;6948;51.216;6.778;2023-07-28T14:17:19;1.57;;;1.30;;
13753;SDS011;6948;51.216;6.778;2023-07-28T14:19:45;2.57;;;1.40;;
13753;SDS011;6948;51.216;6.778;2023-07-28T14:22:11;1.87;;;1.30;;
13753;SDS011;6948;51.216;6.778;2023-07-28T14:24:38;3.50;;;1.60;;
13753;SDS011;6948;51.216;6.778;2023-07-28T14:27:04;1.60;;;1.50;;
13753;SDS011;6948;51.216;6.778;2023-07-28T14:29:30;2.60;;;1.50;;
13753;SDS011;6948;51.216;6.778;2023-07-28T14:31:56;2.17;;;1.60;;
13753;SDS011;6948;51.216;6.778;2023-07-28T14:34:22;1.80;;;1.50;;
13753;SDS011;6948;51.216;6.778;2023-07-28T14:36:49;1.97;;;1.57;;
13753;SDS011;6948;51.216;6.778;2023-07-28T14:39:15;1.60;;;1.50;;
13753;SDS011;6948;51.216;6.778;2023-07-28T14:41:41;1.70;;;1.50;;
13753;SDS011;6948;51.216;6.778;2023-07-28T14:44:07;2.47;;;1.80;;
13753;SDS011;6948;51.216;6.778;2023-07-28T14:46:33;1.40;;;1.30;;
13753;SDS011;6948;51.216;6.778;2023-07-28T14:48:59;1.42;;;1.30;;
13753;SDS011;6948;51.216;6.778;2023-07-28T14:51:25;1.83;;;1.30;;
13753;SDS011;6948;51.216;6.778;2023-07-28T14:53:52;1.23;;;1.00;;
13753;SDS011;6948;51.216;6.778;2023-07-28T14:56:20;1.20;;;1.10;;
13753;SDS011;6948;51.216;6.778;2023-07-28T14:58:49;1.50;;;1.35;;
13753;SDS011;6948;51.216;6.778;2023-07-28T15:01:16;1.50;;;1.40;;
13753;SDS011;6948;51.216;6.778;2023-07-28T15:03:42;1.83;;;1.27;;
13753;SDS011;6948;51.216;6.778;2023-07-28T15:06:08;1.80;;;1.67;;
13753;SDS011;6948;51.216;6.778;2023-07-28T15:08:34;2.00;;;1.50;;
13753;SDS011;6948;51.216;6.778;2023-07-28T15:11:01;1.50;;;1.40;;